sensor_id;sensor_type;location;lat;lon;timestamp;temperature;humidity
36790;DHT22;22740;52.182;8.780;2022-07-22T00:04:23;18.10;99.90
36790;DHT22;22740;52.182;8.780;2022-07-22T00:10:25;18.00;99.90
36790;DHT22;22740;52.182;8.780;2022-07-22T00:16:27;17.90;99.90
36790;DHT22;22740;52.182;8.780;2022-07-22T00:22:29;17.90;99.90
36790;DHT22;22740;52.182;8.780;2022-07-22T00:28:32;17.80;99.90
36790;DHT22;22740;52.182;8.780;2022-07-22T00:34:34;17.70;99.90
36790;DHT22;22740;52.182;8.780;2022-07-22T00:40:36;17.70;99.90
36790;DHT22;22740;52.182;8.780;2022-07-22T00:46:38;17.60;99.90
36790;DHT22;22740;52.182;8.780;2022-07-22T00:52:41;17.60;99.90
36790;DHT22;22740;52.182;8.780;2022-07-22T00:58:44;17.60;99.90
36790;DHT22;22740;52.182;8.780;2022-07-22T01:04:46;17.60;99.90
36790;DHT22;22740;52.182;8.780;2022-07-22T01:10:48;17.50;99.90
36790;DHT22;22740;52.182;8.780;2022-07-22T01:16:50;17.30;99.90
36790;DHT22;22740;52.182;8.780;2022-07-22T01:22:52;17.50;99.90
36790;DHT22;22740;52.182;8.780;2022-07-22T01:28:54;17.30;99.90
36790;DHT22;22740;52.182;8.780;2022-07-22T01:34:56;17.30;99.90
36790;DHT22;22740;52.182;8.780;2022-07-22T01:40:58;16.80;99.90
36790;DHT22;22740;52.182;8.780;2022-07-22T01:47:00;16.80;99.90
36790;DHT22;22740;52.182;8.780;2022-07-22T01:53:02;16.70;99.90
36790;DHT22;22740;52.182;8.780;2022-07-22T01:59:03;16.90;99.90
36790;DHT22;22740;52.182;8.780;2022-07-22T02:05:06;16.80;99.90
36790;DHT22;22740;52.182;8.780;2022-07-22T02:11:08;16.60;99.90
36790;DHT22;22740;52.182;8.780;2022-07-22T02:17:09;16.60;99.90
36790;DHT22;22740;52.182;8.780;2022-07-22T02:23:11;16.80;99.90
36790;DHT22;22740;52.182;8.780;2022-07-22T02:29:13;16.70;99.90
36790;DHT22;22740;52.182;8.780;2022-07-22T02:35:15;16.80;99.90
36790;DHT22;22740;52.182;8.780;2022-07-22T02:41:17;16.60;99.90
36790;DHT22;22740;52.182;8.780;2022-07-22T02:47:19;16.50;99.90
36790;DHT22;22740;52.182;8.780;2022-07-22T02:53:21;16.40;99.90
36790;DHT22;22740;52.182;8.780;2022-07-22T02:59:23;16.20;99.90
36790;DHT22;22740;52.182;8.780;2022-07-22T03:05:24;16.40;99.90
36790;DHT22;22740;52.182;8.780;2022-07-22T03:11:26;16.70;99.90
36790;DHT22;22740;52.182;8.780;2022-07-22T03:17:28;16.60;99.90
36790;DHT22;22740;52.182;8.780;2022-07-22T03:23:30;16.50;99.90
36790;DHT22;22740;52.182;8.780;2022-07-22T03:29:32;16.50;99.90
36790;DHT22;22740;52.182;8.780;2022-07-22T03:35:33;16.30;99.90
36790;DHT22;22740;52.182;8.780;2022-07-22T03:41:35;16.40;99.90
36790;DHT22;22740;52.182;8.780;2022-07-22T03:47:37;16.20;99.90
36790;DHT22;22740;52.182;8.780;2022-07-22T03:53:39;16.20;99.90
36790;DHT22;22740;52.182;8.780;2022-07-22T03:59:41;16.20;99.90
36790;DHT22;22740;52.182;8.780;2022-07-22T04:05:42;16.10;99.90
36790;DHT22;22740;52.182;8.780;2022-07-22T04:11:44;16.00;99.90
36790;DHT22;22740;52.182;8.780;2022-07-22T04:17:46;16.00;99.90
36790;DHT22;22740;52.182;8.780;2022-07-22T04:23:48;16.20;99.90
36790;DHT22;22740;52.182;8.780;2022-07-22T04:29:50;16.10;99.90
36790;DHT22;22740;52.182;8.780;2022-07-22T04:35:52;16.00;99.90
36790;DHT22;22740;52.182;8.780;2022-07-22T04:41:54;16.00;99.90
36790;DHT22;22740;52.182;8.780;2022-07-22T04:47:56;16.10;99.90
36790;DHT22;22740;52.182;8.780;2022-07-22T04:53:58;16.10;99.90
36790;DHT22;22740;52.182;8.780;2022-07-22T05:00:01;15.90;99.90
36790;DHT22;22740;52.182;8.780;2022-07-22T05:06:03;16.30;99.90
36790;DHT22;22740;52.182;8.780;2022-07-22T05:12:06;16.20;99.90
36790;DHT22;22740;52.182;8.780;2022-07-22T05:18:08;16.20;99.90
36790;DHT22;22740;52.182;8.780;2022-07-22T05:24:10;16.30;99.90
36790;DHT22;22740;52.182;8.780;2022-07-22T05:30:12;16.40;99.90
36790;DHT22;22740;52.182;8.780;2022-07-22T05:36:23;16.40;99.90
36790;DHT22;22740;52.182;8.780;2022-07-22T05:42:25;16.50;99.90
36790;DHT22;22740;52.182;8.780;2022-07-22T05:48:26;16.30;99.90
36790;DHT22;22740;52.182;8.780;2022-07-22T05:54:28;15.90;99.90
36790;DHT22;22740;52.182;8.780;2022-07-22T06:00:30;16.00;99.90
36790;DHT22;22740;52.182;8.780;2022-07-22T06:06:32;15.80;99.90
36790;DHT22;22740;52.182;8.780;2022-07-22T06:12:34;15.90;99.90
36790;DHT22;22740;52.182;8.780;2022-07-22T06:18:37;16.20;99.90
36790;DHT22;22740;52.182;8.780;2022-07-22T06:24:39;16.20;99.90
36790;DHT22;22740;52.182;8.780;2022-07-22T06:30:41;16.20;99.90
36790;DHT22;22740;52.182;8.780;2022-07-22T06:36:43;16.30;99.90
36790;DHT22;22740;52.182;8.780;2022-07-22T06:42:45;16.10;99.90
36790;DHT22;22740;52.182;8.780;2022-07-22T06:48:47;16.30;99.90
36790;DHT22;22740;52.182;8.780;2022-07-22T06:54:49;16.40;99.90
36790;DHT22;22740;52.182;8.780;2022-07-22T07:00:51;16.40;99.90
36790;DHT22;22740;52.182;8.780;2022-07-22T07:06:53;16.50;99.90
36790;DHT22;22740;52.182;8.780;2022-07-22T07:12:56;16.40;99.90
36790;DHT22;22740;52.182;8.780;2022-07-22T07:18:58;16.20;99.90
36790;DHT22;22740;52.182;8.780;2022-07-22T07:25:07;16.50;99.90
36790;DHT22;22740;52.182;8.780;2022-07-22T07:31:24;16.50;99.90
36790;DHT22;22740;52.182;8.780;2022-07-22T07:37:26;16.50;99.90
36790;DHT22;22740;52.182;8.780;2022-07-22T07:43:27;16.50;99.90
36790;DHT22;22740;52.182;8.780;2022-07-22T07:49:29;16.50;99.90
36790;DHT22;22740;52.182;8.780;2022-07-22T07:55:32;16.50;99.90
36790;DHT22;22740;52.182;8.780;2022-07-22T08:01:37;16.30;99.90
36790;DHT22;22740;52.182;8.780;2022-07-22T08:07:58;16.50;99.90
36790;DHT22;22740;52.182;8.780;2022-07-22T08:14:00;16.40;99.90
36790;DHT22;22740;52.182;8.780;2022-07-22T08:20:04;16.50;99.90
36790;DHT22;22740;52.182;8.780;2022-07-22T08:26:07;16.60;99.90
36790;DHT22;22740;52.182;8.780;2022-07-22T08:32:08;16.80;99.90
36790;DHT22;22740;52.182;8.780;2022-07-22T08:38:10;16.90;99.90
36790;DHT22;22740;52.182;8.780;2022-07-22T08:44:12;17.00;99.90
36790;DHT22;22740;52.182;8.780;2022-07-22T08:50:15;17.00;99.90
36790;DHT22;22740;52.182;8.780;2022-07-22T08:56:17;16.90;99.90
36790;DHT22;22740;52.182;8.780;2022-07-22T09:02:19;16.80;99.90
36790;DHT22;22740;52.182;8.780;2022-07-22T09:08:22;16.90;99.90
36790;DHT22;22740;52.182;8.780;2022-07-22T09:14:23;17.10;99.90
36790;DHT22;22740;52.182;8.780;2022-07-22T09:20:26;17.10;99.90
36790;DHT22;22740;52.182;8.780;2022-07-22T09:26:31;17.10;99.90
36790;DHT22;22740;52.182;8.780;2022-07-22T09:32:39;17.30;99.90
36790;DHT22;22740;52.182;8.780;2022-07-22T09:38:43;17.20;99.90
36790;DHT22;22740;52.182;8.780;2022-07-22T09:44:46;17.10;99.90
36790;DHT22;22740;52.182;8.780;2022-07-22T09:50:51;17.50;99.90
36790;DHT22;22740;52.182;8.780;2022-07-22T09:56:53;17.00;99.90
36790;DHT22;22740;52.182;8.780;2022-07-22T10:03:00;17.10;99.90
36790;DHT22;22740;52.182;8.780;2022-07-22T10:09:03;17.50;99.90
36790;DHT22;22740;52.182;8.780;2022-07-22T10:15:14;17.20;99.90
36790;DHT22;22740;52.182;8.780;2022-07-22T10:21:17;17.10;99.90
36790;DHT22;22740;52.182;8.780;2022-07-22T10:27:49;16.90;99.90
36790;DHT22;22740;52.182;8.780;2022-07-22T10:33:56;17.20;99.90
36790;DHT22;22740;52.182;8.780;2022-07-22T10:40:16;16.90;99.90
36790;DHT22;22740;52.182;8.780;2022-07-22T10:46:51;17.20;99.90
36790;DHT22;22740;52.182;8.780;2022-07-22T10:52:55;17.30;99.90
36790;DHT22;22740;52.182;8.780;2022-07-22T10:59:13;17.40;99.90
36790;DHT22;22740;52.182;8.780;2022-07-22T11:05:27;17.00;99.90
36790;DHT22;22740;52.182;8.780;2022-07-22T11:11:42;17.00;99.90
36790;DHT22;22740;52.182;8.780;2022-07-22T11:17:46;17.00;99.90
36790;DHT22;22740;52.182;8.780;2022-07-22T11:23:51;16.90;99.90
36790;DHT22;22740;52.182;8.780;2022-07-22T11:29:55;17.00;99.90
36790;DHT22;22740;52.182;8.780;2022-07-22T11:36:06;17.00;99.90
36790;DHT22;22740;52.182;8.780;2022-07-22T11:42:08;17.20;99.90
36790;DHT22;22740;52.182;8.780;2022-07-22T11:48:10;17.30;99.90
36790;DHT22;22740;52.182;8.780;2022-07-22T11:54:12;17.20;99.90
36790;DHT22;22740;52.182;8.780;2022-07-22T12:00:16;17.40;99.90
36790;DHT22;22740;52.182;8.780;2022-07-22T12:06:20;17.40;99.90
36790;DHT22;22740;52.182;8.780;2022-07-22T12:12:39;17.50;99.90
36790;DHT22;22740;52.182;8.780;2022-07-22T12:18:41;17.50;99.90
36790;DHT22;22740;52.182;8.780;2022-07-22T12:24:45;17.60;99.90
36790;DHT22;22740;52.182;8.780;2022-07-22T12:30:48;17.30;99.90
36790;DHT22;22740;52.182;8.780;2022-07-22T12:36:50;17.40;99.90
36790;DHT22;22740;52.182;8.780;2022-07-22T12:43:04;17.40;99.90
36790;DHT22;22740;52.182;8.780;2022-07-22T12:49:06;17.40;99.90
36790;DHT22;22740;52.182;8.780;2022-07-22T12:55:08;17.30;99.90
36790;DHT22;22740;52.182;8.780;2022-07-22T13:01:09;17.30;99.90
36790;DHT22;22740;52.182;8.780;2022-07-22T13:07:11;17.30;99.90
36790;DHT22;22740;52.182;8.780;2022-07-22T13:13:14;17.50;99.90
36790;DHT22;22740;52.182;8.780;2022-07-22T13:19:15;17.70;99.90
36790;DHT22;22740;52.182;8.780;2022-07-22T13:25:17;17.90;99.90
36790;DHT22;22740;52.182;8.780;2022-07-22T13:31:19;17.70;99.90
36790;DHT22;22740;52.182;8.780;2022-07-22T13:37:22;17.70;99.90
36790;DHT22;22740;52.182;8.780;2022-07-22T13:43:25;17.80;99.90
36790;DHT22;22740;52.182;8.780;2022-07-22T13:49:27;18.10;99.90
36790;DHT22;22740;52.182;8.780;2022-07-22T13:55:33;18.20;99.90
36790;DHT22;22740;52.182;8.780;2022-07-22T14:01:36;17.80;99.90
36790;DHT22;22740;52.182;8.780;2022-07-22T14:07:38;18.00;99.90
36790;DHT22;22740;52.182;8.780;2022-07-22T14:13:40;17.70;99.90
36790;DHT22;22740;52.182;8.780;2022-07-22T14:19:42;18.10;99.90
36790;DHT22;22740;52.182;8.780;2022-07-22T14:25:44;17.70;99.90
36790;DHT22;22740;52.182;8.780;2022-07-22T14:31:46;18.00;99.90
36790;DHT22;22740;52.182;8.780;2022-07-22T14:37:48;17.70;99.90
36790;DHT22;22740;52.182;8.780;2022-07-22T14:43:50;17.80;99.90
36790;DHT22;22740;52.182;8.780;2022-07-22T14:49:52;18.00;99.90
36790;DHT22;22740;52.182;8.780;2022-07-22T14:55:54;17.80;99.90
36790;DHT22;22740;52.182;8.780;2022-07-22T15:01:56;17.60;99.90
36790;DHT22;22740;52.182;8.780;2022-07-22T15:07:58;17.90;99.90
36790;DHT22;22740;52.182;8.780;2022-07-22T15:14:00;17.70;99.90
36790;DHT22;22740;52.182;8.780;2022-07-22T15:20:04;17.70;99.90
36790;DHT22;22740;52.182;8.780;2022-07-22T15:26:06;18.00;99.90
36790;DHT22;22740;52.182;8.780;2022-07-22T15:32:08;17.70;99.90
36790;DHT22;22740;52.182;8.780;2022-07-22T15:38:10;17.90;99.90
36790;DHT22;22740;52.182;8.780;2022-07-22T15:44:12;17.70;99.90
36790;DHT22;22740;52.182;8.780;2022-07-22T15:50:14;17.80;99.90
36790;DHT22;22740;52.182;8.780;2022-07-22T15:56:21;17.90;99.90
36790;DHT22;22740;52.182;8.780;2022-07-22T16:02:23;17.80;99.90
36790;DHT22;22740;52.182;8.780;2022-07-22T16:08:25;17.70;99.90
36790;DHT22;22740;52.182;8.780;2022-07-22T16:14:27;17.90;99.90
36790;DHT22;22740;52.182;8.780;2022-07-22T16:20:32;17.70;99.90
36790;DHT22;22740;52.182;8.780;2022-07-22T16:26:33;18.00;99.90
36790;DHT22;22740;52.182;8.780;2022-07-22T16:32:35;17.80;99.90
36790;DHT22;22740;52.182;8.780;2022-07-22T16:38:37;17.90;99.90
36790;DHT22;22740;52.182;8.780;2022-07-22T16:44:39;17.50;99.90
36790;DHT22;22740;52.182;8.780;2022-07-22T16:50:41;17.70;99.90
36790;DHT22;22740;52.182;8.780;2022-07-22T16:56:43;17.60;99.90
36790;DHT22;22740;52.182;8.780;2022-07-22T17:02:44;17.70;99.90
36790;DHT22;22740;52.182;8.780;2022-07-22T17:08:46;17.60;99.90
36790;DHT22;22740;52.182;8.780;2022-07-22T17:14:48;17.60;99.90
36790;DHT22;22740;52.182;8.780;2022-07-22T17:20:51;17.90;99.90
36790;DHT22;22740;52.182;8.780;2022-07-22T17:26:53;17.90;99.90
36790;DHT22;22740;52.182;8.780;2022-07-22T17:32:55;17.90;99.90
36790;DHT22;22740;52.182;8.780;2022-07-22T17:38:57;17.80;99.90
36790;DHT22;22740;52.182;8.780;2022-07-22T17:45:02;17.90;99.90
36790;DHT22;22740;52.182;8.780;2022-07-22T17:51:04;17.80;99.90
36790;DHT22;22740;52.182;8.780;2022-07-22T17:57:06;17.90;99.90
36790;DHT22;22740;52.182;8.780;2022-07-22T18:03:08;17.90;99.90
36790;DHT22;22740;52.182;8.780;2022-07-22T18:09:10;17.90;99.90
36790;DHT22;22740;52.182;8.780;2022-07-22T18:15:12;17.80;99.90
36790;DHT22;22740;52.182;8.780;2022-07-22T18:21:15;17.90;99.90
36790;DHT22;22740;52.182;8.780;2022-07-22T18:27:16;17.90;99.90
36790;DHT22;22740;52.182;8.780;2022-07-22T18:33:18;17.90;99.90
36790;DHT22;22740;52.182;8.780;2022-07-22T18:39:29;17.80;99.90
36790;DHT22;22740;52.182;8.780;2022-07-22T18:45:31;17.70;99.90
36790;DHT22;22740;52.182;8.780;2022-07-22T18:51:33;17.70;99.90
36790;DHT22;22740;52.182;8.780;2022-07-22T18:57:35;17.60;99.90
36790;DHT22;22740;52.182;8.780;2022-07-22T19:03:37;17.60;99.90
36790;DHT22;22740;52.182;8.780;2022-07-22T19:09:39;17.60;99.90
36790;DHT22;22740;52.182;8.780;2022-07-22T19:15:41;17.60;99.90
36790;DHT22;22740;52.182;8.780;2022-07-22T19:21:43;17.50;99.90
36790;DHT22;22740;52.182;8.780;2022-07-22T19:27:45;17.30;99.90
36790;DHT22;22740;52.182;8.780;2022-07-22T19:33:47;17.20;99.90
36790;DHT22;22740;52.182;8.780;2022-07-22T19:39:50;17.10;99.90
36790;DHT22;22740;52.182;8.780;2022-07-22T19:45:53;17.00;99.90
36790;DHT22;22740;52.182;8.780;2022-07-22T19:51:54;16.90;99.90
36790;DHT22;22740;52.182;8.780;2022-07-22T19:57:56;16.80;99.90
36790;DHT22;22740;52.182;8.780;2022-07-22T20:03:59;16.60;99.90
36790;DHT22;22740;52.182;8.780;2022-07-22T20:10:01;16.60;99.90
36790;DHT22;22740;52.182;8.780;2022-07-22T20:16:03;16.70;99.90
36790;DHT22;22740;52.182;8.780;2022-07-22T20:22:06;16.70;99.90
36790;DHT22;22740;52.182;8.780;2022-07-22T20:28:08;16.60;99.90
36790;DHT22;22740;52.182;8.780;2022-07-22T20:34:10;16.50;99.90
36790;DHT22;22740;52.182;8.780;2022-07-22T20:40:12;16.40;99.90
36790;DHT22;22740;52.182;8.780;2022-07-22T20:46:14;16.30;99.90
36790;DHT22;22740;52.182;8.780;2022-07-22T20:52:16;16.40;99.90
36790;DHT22;22740;52.182;8.780;2022-07-22T20:58:18;16.40;99.90
36790;DHT22;22740;52.182;8.780;2022-07-22T21:04:20;16.50;99.90
36790;DHT22;22740;52.182;8.780;2022-07-22T21:10:22;16.40;99.90
36790;DHT22;22740;52.182;8.780;2022-07-22T21:16:24;16.40;99.90
36790;DHT22;22740;52.182;8.780;2022-07-22T21:22:26;16.30;99.90
36790;DHT22;22740;52.182;8.780;2022-07-22T21:28:28;16.30;99.90
36790;DHT22;22740;52.182;8.780;2022-07-22T21:34:30;16.40;99.90
36790;DHT22;22740;52.182;8.780;2022-07-22T21:40:31;16.40;99.90
36790;DHT22;22740;52.182;8.780;2022-07-22T21:46:33;16.30;99.90
36790;DHT22;22740;52.182;8.780;2022-07-22T21:52:35;16.30;99.90
36790;DHT22;22740;52.182;8.780;2022-07-22T21:58:37;16.30;99.90
36790;DHT22;22740;52.182;8.780;2022-07-22T22:04:39;16.20;99.90
36790;DHT22;22740;52.182;8.780;2022-07-22T22:10:41;16.30;99.90
36790;DHT22;22740;52.182;8.780;2022-07-22T22:16:51;16.20;99.90
36790;DHT22;22740;52.182;8.780;2022-07-22T22:22:53;16.30;99.90
36790;DHT22;22740;52.182;8.780;2022-07-22T22:28:55;16.30;99.90
36790;DHT22;22740;52.182;8.780;2022-07-22T22:34:56;16.30;99.90
36790;DHT22;22740;52.182;8.780;2022-07-22T22:40:58;16.30;99.90
36790;DHT22;22740;52.182;8.780;2022-07-22T22:47:00;16.10;99.90
36790;DHT22;22740;52.182;8.780;2022-07-22T22:53:02;16.10;99.90
36790;DHT22;22740;52.182;8.780;2022-07-22T22:59:04;16.00;99.90
36790;DHT22;22740;52.182;8.780;2022-07-22T23:05:07;15.90;99.90
36790;DHT22;22740;52.182;8.780;2022-07-22T23:11:15;15.80;99.90
36790;DHT22;22740;52.182;8.780;2022-07-22T23:17:17;15.80;99.90
36790;DHT22;22740;52.182;8.780;2022-07-22T23:23:21;15.80;99.90
36790;DHT22;22740;52.182;8.780;2022-07-22T23:29:25;15.70;99.90
36790;DHT22;22740;52.182;8.780;2022-07-22T23:35:27;15.70;99.90
36790;DHT22;22740;52.182;8.780;2022-07-22T23:41:28;15.60;99.90
36790;DHT22;22740;52.182;8.780;2022-07-22T23:47:30;15.50;99.90
36790;DHT22;22740;52.182;8.780;2022-07-22T23:53:32;15.40;99.90
36790;DHT22;22740;52.182;8.780;2022-07-22T23:59:34;15.40;99.90
